createdAt,value
2022-08-14T00:00:44.649Z,99.50
2022-08-14T00:03:20.766Z,99.80
2022-08-14T00:06:00.430Z,99.90
2022-08-14T00:08:44.732Z,99.90
2022-08-14T00:11:14.153Z,99.90
2022-08-14T00:13:52.423Z,99.90
2022-08-14T00:16:41.693Z,99.90
2022-08-14T00:19:19.385Z,99.90
2022-08-14T00:21:50.324Z,99.90
2022-08-14T00:24:23.198Z,99.90
2022-08-14T00:27:02.204Z,99.90
2022-08-14T00:29:32.966Z,99.90
2022-08-14T00:32:50.555Z,99.90
2022-08-14T00:35:01.365Z,99.90
2022-08-14T00:37:31.926Z,99.90
2022-08-14T00:40:02.793Z,99.90
2022-08-14T00:42:55.900Z,99.90
2022-08-14T00:45:25.394Z,99.90
2022-08-14T00:47:54.022Z,99.90
2022-08-14T00:50:25.897Z,99.90
2022-08-14T00:52:55.990Z,99.90
2022-08-14T00:55:27.958Z,99.90
2022-08-14T00:58:18.778Z,99.90
2022-08-14T01:00:57.763Z,99.90
2022-08-14T01:03:30.725Z,99.90
2022-08-14T01:06:00.461Z,99.90
2022-08-14T01:08:51.791Z,99.90
2022-08-14T01:11:20.961Z,99.90
2022-08-14T01:14:01.180Z,99.90
2022-08-14T01:16:31.866Z,99.90
2022-08-14T01:19:19.846Z,99.90
2022-08-14T01:21:53.510Z,99.90
2022-08-14T01:24:30.672Z,99.90
2022-08-14T01:27:04.957Z,99.90
2022-08-14T01:29:58.522Z,99.90
2022-08-14T01:32:26.628Z,99.90
2022-08-14T01:35:17.568Z,99.90
2022-08-14T01:37:54.723Z,99.90
2022-08-14T01:40:36.534Z,99.90
2022-08-14T01:43:18.698Z,99.90
2022-08-14T01:45:57.797Z,99.90
2022-08-14T01:48:36.983Z,99.90
2022-08-14T01:51:19.178Z,99.90
2022-08-14T01:53:55.900Z,99.90
2022-08-14T01:56:37.225Z,99.90
2022-08-14T01:59:09.826Z,99.90
2022-08-14T02:01:41.926Z,99.90
2022-08-14T02:04:55.147Z,99.90
2022-08-14T02:07:15.600Z,99.90
2022-08-14T02:09:55.930Z,99.90
2022-08-14T02:12:29.096Z,99.90
2022-08-14T02:15:00.572Z,99.90
2022-08-14T02:17:31.064Z,99.90
2022-08-14T02:20:00.274Z,99.90
2022-08-14T02:22:33.129Z,99.90
2022-08-14T02:25:03.520Z,99.90
2022-08-14T02:28:22.023Z,99.90
2022-08-14T02:30:21.654Z,99.90
2022-08-14T02:32:50.936Z,99.90
2022-08-14T02:35:22.019Z,99.90
2022-08-14T02:37:55.231Z,99.90
2022-08-14T02:40:32.241Z,99.90
2022-08-14T02:43:03.923Z,99.90
2022-08-14T02:45:38.700Z,99.90
2022-08-14T02:49:04.728Z,99.90
2022-08-14T02:51:05.498Z,99.90
2022-08-14T02:53:35.252Z,99.90
2022-08-14T02:56:30.830Z,99.90
2022-08-14T02:59:02.015Z,99.90
2022-08-14T03:01:43.331Z,99.90
2022-08-14T03:04:20.670Z,99.90
2022-08-14T03:07:06.131Z,99.90
2022-08-14T03:10:24.181Z,99.90
2022-08-14T03:12:31.366Z,99.90
2022-08-14T03:15:06.376Z,99.90
2022-08-14T03:17:41.229Z,99.90
2022-08-14T03:20:25.591Z,99.90
2022-08-14T03:22:54.643Z,99.90
2022-08-14T03:25:23.606Z,99.90
2022-08-14T03:27:58.314Z,99.90
2022-08-14T03:30:39.476Z,99.90
2022-08-14T03:33:11.990Z,99.90
2022-08-14T03:36:00.028Z,99.90
2022-08-14T03:39:11.617Z,99.90
2022-08-14T03:41:23.118Z,99.90
2022-08-14T03:43:57.801Z,99.90
2022-08-14T03:46:52.572Z,99.90
2022-08-14T03:49:24.280Z,99.90
2022-08-14T03:51:58.402Z,99.90
2022-08-14T03:54:29.576Z,99.90
2022-08-14T03:57:03.002Z,99.90
2022-08-14T03:59:35.366Z,99.90
2022-08-14T04:02:31.843Z,99.90
2022-08-14T04:04:53.680Z,99.90
2022-08-14T04:07:23.642Z,99.90
2022-08-14T04:09:53.325Z,99.90
2022-08-14T04:12:26.170Z,99.90
2022-08-14T04:14:57.400Z,99.90
2022-08-14T04:17:26.376Z,99.90
2022-08-14T04:19:55.658Z,99.90
2022-08-14T04:22:25.322Z,99.90
2022-08-14T04:24:54.407Z,99.90
2022-08-14T04:27:23.366Z,99.90
2022-08-14T04:29:51.947Z,99.90
2022-08-14T04:32:59.321Z,99.90
2022-08-14T04:35:12.407Z,99.90
2022-08-14T04:38:10.619Z,99.90
2022-08-14T04:41:10.433Z,99.90
2022-08-14T04:43:40.804Z,99.90
2022-08-14T04:46:11.889Z,99.90
2022-08-14T04:49:02.184Z,99.90
2022-08-14T04:51:46.315Z,99.90
2022-08-14T04:54:17.203Z,99.90
2022-08-14T04:56:46.015Z,99.90
2022-08-14T04:59:14.514Z,99.90
2022-08-14T05:01:48.819Z,99.90
2022-08-14T05:04:22.077Z,99.90
2022-08-14T05:06:53.482Z,99.90
2022-08-14T05:09:23.991Z,99.90
2022-08-14T05:11:53.114Z,99.90
2022-08-14T05:14:46.513Z,99.90
2022-08-14T05:17:13.161Z,99.80
2022-08-14T05:19:44.797Z,99.40
2022-08-14T05:22:31.750Z,98.90
2022-08-14T05:25:01.380Z,98.30
2022-08-14T05:27:31.156Z,97.70
2022-08-14T05:30:01.379Z,97.10
2022-08-14T05:32:30.571Z,96.50
2022-08-14T05:35:01.408Z,95.80
2022-08-14T05:37:31.290Z,95.20
2022-08-14T05:40:02.148Z,94.60
2022-08-14T05:42:34.510Z,93.90
2022-08-14T05:45:10.949Z,93.50
2022-08-14T05:47:43.306Z,92.90
2022-08-14T05:50:18.588Z,92.20
2022-08-14T05:52:51.111Z,91.60
2022-08-14T05:55:22.125Z,91.10
2022-08-14T05:57:54.913Z,90.90
2022-08-14T06:00:30.090Z,90.60
2022-08-14T06:03:06.792Z,90.30
2022-08-14T06:05:38.673Z,90.00
2022-08-14T06:08:31.298Z,89.60
2022-08-14T06:11:06.626Z,88.30
2022-08-14T06:13:45.690Z,87.80
2022-08-14T06:16:18.812Z,87.40
2022-08-14T06:18:52.427Z,87.10
2022-08-14T06:21:23.786Z,87.50
2022-08-14T06:23:53.370Z,88.50
2022-08-14T06:26:22.680Z,89.40
2022-08-14T06:28:59.340Z,90.20
2022-08-14T06:31:28.153Z,90.60
2022-08-14T06:35:04.127Z,90.90
2022-08-14T06:36:47.152Z,91.20
2022-08-14T06:39:17.290Z,91.60
2022-08-14T06:41:58.042Z,91.80
2022-08-14T06:44:33.046Z,91.90
2022-08-14T06:47:05.480Z,92.10
2022-08-14T06:49:40.282Z,92.30
2022-08-14T06:52:18.776Z,92.50
2022-08-14T06:54:48.072Z,92.70
2022-08-14T06:57:17.711Z,92.80
2022-08-14T06:59:46.493Z,92.90
2022-08-14T07:02:33.121Z,92.80
2022-08-14T07:05:23.675Z,92.30
2022-08-14T07:07:54.107Z,91.00
2022-08-14T07:10:25.413Z,89.20
2022-08-14T07:13:01.673Z,86.80
2022-08-14T07:15:34.000Z,84.30
2022-08-14T07:18:09.394Z,83.50
2022-08-14T07:20:38.609Z,81.40
2022-08-14T07:23:11.063Z,80.40
2022-08-14T07:25:51.592Z,79.50
2022-08-14T07:28:23.775Z,79.20
2022-08-14T07:30:56.399Z,78.80
2022-08-14T07:33:30.010Z,78.40
2022-08-14T07:36:01.578Z,77.90
2022-08-14T07:38:37.640Z,77.70
2022-08-14T07:41:14.308Z,77.20
2022-08-14T07:43:47.371Z,77.10
2022-08-14T07:46:28.470Z,76.80
2022-08-14T07:48:58.442Z,76.50
2022-08-14T07:51:33.972Z,76.10
2022-08-14T07:54:09.804Z,75.40
2022-08-14T07:56:47.854Z,75.10
2022-08-14T07:59:20.725Z,74.40
2022-08-14T08:02:19.781Z,73.90
2022-08-14T08:04:53.013Z,73.70
2022-08-14T08:07:23.494Z,73.60
2022-08-14T08:09:58.155Z,73.50
2022-08-14T08:12:38.704Z,72.80
2022-08-14T08:15:08.160Z,72.00
2022-08-14T08:17:42.348Z,70.90
2022-08-14T08:20:20.019Z,70.10
2022-08-14T08:22:55.765Z,70.00
2022-08-14T08:25:26.631Z,69.70
2022-08-14T08:28:08.304Z,69.60
2022-08-14T08:30:45.056Z,69.80
2022-08-14T08:33:20.092Z,69.80
2022-08-14T08:35:50.907Z,69.50
2022-08-14T08:39:14.880Z,68.80
2022-08-14T08:41:14.467Z,68.80
2022-08-14T08:43:46.088Z,68.40
2022-08-14T08:46:23.501Z,69.00
2022-08-14T08:51:33.451Z,69.00
2022-08-14T08:54:05.316Z,68.80
2022-08-14T08:56:44.391Z,68.40
2022-08-14T08:59:21.847Z,68.60
2022-08-14T09:01:56.503Z,68.20
2022-08-14T09:04:27.472Z,68.40
2022-08-14T09:07:09.565Z,68.70
2022-08-14T09:09:53.645Z,69.00
2022-08-14T09:12:24.904Z,69.20
2022-08-14T09:14:56.302Z,69.00
2022-08-14T09:17:26.291Z,68.80
2022-08-14T09:19:55.276Z,69.00
2022-08-14T09:22:32.953Z,69.30
2022-08-14T09:25:06.940Z,69.40
2022-08-14T09:27:39.645Z,69.60
2022-08-14T09:30:13.259Z,69.90
2022-08-14T09:33:13.053Z,71.00
2022-08-14T09:35:56.574Z,70.60
2022-08-14T09:38:34.604Z,71.10
2022-08-14T09:41:14.648Z,71.70
2022-08-14T09:43:55.738Z,71.60
2022-08-14T09:46:27.821Z,71.70
2022-08-14T09:49:01.462Z,72.00
2022-08-14T09:51:32.937Z,72.20
2022-08-14T09:54:22.714Z,72.30
2022-08-14T09:56:57.273Z,72.50
2022-08-14T09:59:40.329Z,72.40
2022-08-14T10:02:21.892Z,72.60
2022-08-14T10:05:06.469Z,73.10
2022-08-14T10:07:41.193Z,73.60
2022-08-14T10:10:23.136Z,73.70
2022-08-14T10:12:54.858Z,74.10
2022-08-14T10:15:30.292Z,74.00
2022-08-14T10:18:09.562Z,73.90
2022-08-14T10:20:55.346Z,73.70
2022-08-14T10:23:26.163Z,73.30
2022-08-14T10:26:04.399Z,73.10
2022-08-14T10:29:18.841Z,72.90
2022-08-14T10:31:40.206Z,72.50
2022-08-14T10:34:15.182Z,72.60
2022-08-14T10:36:47.905Z,73.00
2022-08-14T10:39:19.876Z,73.00
2022-08-14T10:41:54.049Z,72.80
2022-08-14T10:44:29.905Z,72.40
2022-08-14T10:47:39.397Z,71.50
2022-08-14T10:50:00.076Z,71.40
2022-08-14T10:52:33.896Z,71.50
2022-08-14T10:55:09.082Z,71.50
2022-08-14T10:57:51.760Z,71.50
2022-08-14T11:00:30.203Z,71.70
2022-08-14T11:03:09.592Z,70.70
2022-08-14T11:05:43.400Z,70.20
2022-08-14T11:08:15.029Z,69.90
2022-08-14T11:10:46.868Z,69.50
2022-08-14T11:13:24.110Z,69.50
2022-08-14T11:15:53.732Z,68.90
2022-08-14T11:18:36.095Z,68.60
2022-08-14T11:21:10.554Z,68.20
2022-08-14T11:23:41.220Z,67.90
2022-08-14T11:26:14.196Z,67.80
2022-08-14T11:28:49.902Z,67.50
2022-08-14T11:31:22.145Z,67.40
2022-08-14T11:33:58.148Z,67.50
2022-08-14T11:36:57.180Z,68.00
2022-08-14T11:39:33.638Z,68.70
2022-08-14T11:42:57.191Z,69.50
2022-08-14T11:44:56.713Z,69.90
2022-08-14T11:47:35.111Z,70.00
2022-08-14T11:50:33.987Z,70.00
2022-08-14T11:53:07.651Z,69.80
2022-08-14T11:55:39.392Z,70.00
2022-08-14T11:58:10.645Z,69.90
2022-08-14T12:00:50.156Z,70.00
2022-08-14T12:03:37.436Z,69.80
2022-08-14T12:06:28.538Z,69.80
2022-08-14T12:09:02.389Z,70.00
2022-08-14T12:11:44.202Z,69.90
2022-08-14T12:14:29.881Z,69.50
2022-08-14T12:17:12.331Z,69.60
2022-08-14T12:19:51.274Z,69.80
2022-08-14T12:22:36.108Z,70.10
2022-08-14T12:25:11.137Z,70.40
2022-08-14T12:27:46.909Z,70.30
2022-08-14T12:30:37.701Z,70.50
2022-08-14T12:33:23.928Z,70.70
2022-08-14T12:35:56.303Z,70.70
2022-08-14T12:38:41.355Z,70.50
2022-08-14T12:41:16.500Z,70.50
2022-08-14T12:43:53.796Z,70.30
2022-08-14T12:46:27.402Z,70.20
2022-08-14T12:48:58.726Z,70.10
2022-08-14T12:51:30.907Z,70.20
2022-08-14T12:54:02.266Z,70.40
2022-08-14T12:56:33.937Z,70.40
2022-08-14T12:59:04.693Z,70.40
2022-08-14T13:02:00.070Z,70.50
2022-08-14T13:04:24.944Z,70.50
2022-08-14T13:06:54.079Z,70.50
2022-08-14T13:09:35.853Z,70.70
2022-08-14T13:12:32.576Z,70.70
2022-08-14T13:14:59.895Z,70.80
2022-08-14T13:17:29.346Z,70.70
2022-08-14T13:20:10.409Z,70.90
2022-08-14T13:22:44.462Z,70.90
2022-08-14T13:25:16.860Z,71.00
2022-08-14T13:27:47.840Z,71.10
2022-08-14T13:30:23.406Z,71.20
2022-08-14T13:32:54.393Z,71.40
2022-08-14T13:35:23.575Z,71.70
2022-08-14T13:37:53.591Z,71.90
2022-08-14T13:40:29.389Z,72.10
2022-08-14T13:42:58.710Z,72.40
2022-08-14T13:45:59.525Z,72.80
2022-08-14T13:48:32.484Z,73.30
2022-08-14T13:51:10.648Z,74.00
2022-08-14T13:54:07.212Z,75.40
2022-08-14T13:56:39.912Z,77.90
2022-08-14T13:59:09.610Z,79.50
2022-08-14T14:01:43.411Z,80.60
2022-08-14T14:04:18.839Z,81.60
2022-08-14T14:06:51.232Z,82.80
2022-08-14T14:09:27.186Z,83.40
2022-08-14T14:12:04.082Z,84.00
2022-08-14T14:14:51.345Z,84.40
2022-08-14T14:17:24.633Z,84.70
2022-08-14T14:19:53.855Z,85.50
2022-08-14T14:22:36.025Z,86.10
2022-08-14T14:25:14.587Z,86.40
2022-08-14T14:27:53.565Z,86.50
2022-08-14T14:30:52.342Z,86.80
2022-08-14T14:33:42.339Z,86.80
2022-08-14T14:36:05.187Z,87.00
2022-08-14T14:38:35.217Z,87.10
2022-08-14T14:41:05.663Z,87.20
2022-08-14T14:43:44.553Z,87.30
2022-08-14T14:46:16.374Z,87.40
2022-08-14T14:48:53.869Z,87.40
2022-08-14T14:51:24.368Z,87.40
2022-08-14T14:53:54.470Z,87.60
2022-08-14T14:56:49.527Z,87.70
2022-08-14T14:59:15.402Z,87.90
2022-08-14T15:01:50.724Z,87.90
2022-08-14T15:04:20.942Z,88.00
2022-08-14T15:06:50.182Z,88.00
2022-08-14T15:09:23.646Z,88.00
2022-08-14T15:11:52.717Z,87.90
2022-08-14T15:14:56.912Z,87.90
2022-08-14T15:17:12.463Z,88.00
2022-08-14T15:19:42.166Z,87.70
2022-08-14T15:22:28.977Z,87.80
2022-08-14T15:24:59.241Z,88.20
2022-08-14T15:27:31.583Z,88.10
2022-08-14T15:30:02.070Z,88.00
2022-08-14T15:32:31.400Z,87.70
2022-08-14T15:35:00.968Z,87.50
2022-08-14T15:37:33.624Z,87.10
2022-08-14T15:40:03.410Z,86.80
2022-08-14T15:42:39.434Z,86.50
2022-08-14T15:45:12.794Z,86.30
2022-08-14T15:47:43.632Z,86.10
2022-08-14T15:50:13.196Z,85.90
2022-08-14T15:52:43.122Z,85.60
2022-08-14T15:55:16.082Z,85.40
2022-08-14T15:58:01.712Z,85.10
2022-08-14T16:00:53.521Z,84.80
2022-08-14T16:03:27.664Z,84.60
2022-08-14T16:06:05.014Z,84.20
2022-08-14T16:08:34.357Z,83.80
2022-08-14T16:11:07.016Z,83.40
2022-08-14T16:13:39.137Z,83.10
2022-08-14T16:16:47.657Z,82.50
2022-08-14T16:19:01.055Z,81.90
2022-08-14T16:21:31.646Z,82.10
2022-08-14T16:24:02.157Z,84.20
2022-08-14T16:26:33.327Z,89.00
2022-08-14T16:29:04.983Z,91.00
2022-08-14T16:31:36.881Z,93.70
2022-08-14T16:34:43.683Z,95.40
2022-08-14T16:36:57.194Z,97.60
2022-08-14T16:39:26.178Z,99.90
2022-08-14T16:42:00.344Z,99.90
2022-08-14T16:44:40.921Z,99.90
2022-08-14T16:47:17.496Z,99.90
2022-08-14T16:50:03.827Z,99.90
2022-08-14T16:52:43.977Z,99.90
2022-08-14T16:55:30.397Z,99.90
2022-08-14T16:57:59.758Z,99.90
2022-08-14T17:00:43.431Z,99.90
2022-08-14T17:03:15.461Z,99.90
2022-08-14T17:05:46.855Z,99.90
2022-08-14T17:08:32.053Z,99.90
2022-08-14T17:11:11.020Z,99.90
2022-08-14T17:13:59.591Z,99.90
2022-08-14T17:16:37.444Z,99.90
2022-08-14T17:19:13.780Z,99.90
2022-08-14T17:21:47.307Z,99.90
2022-08-14T17:24:51.508Z,99.90
2022-08-14T17:27:08.882Z,99.90
2022-08-14T17:29:44.997Z,99.90
2022-08-14T17:32:55.547Z,99.90
2022-08-14T17:35:57.748Z,99.90
2022-08-14T17:38:39.535Z,99.90
2022-08-14T17:44:34.483Z,99.90
2022-08-14T17:47:11.322Z,99.90
2022-08-14T17:49:52.135Z,99.90
2022-08-14T17:52:34.628Z,99.90
2022-08-14T17:55:07.019Z,99.90
2022-08-14T17:57:40.863Z,99.90
2022-08-14T18:00:13.311Z,99.90
2022-08-14T18:02:50.395Z,99.90
2022-08-14T18:05:23.185Z,99.90
2022-08-14T18:08:31.710Z,99.90
2022-08-14T18:10:54.968Z,99.90
2022-08-14T18:13:50.699Z,99.90
2022-08-14T18:16:20.665Z,99.90
2022-08-14T18:18:52.388Z,99.90
2022-08-14T18:21:23.452Z,99.90
2022-08-14T18:23:56.526Z,99.90
2022-08-14T18:26:37.642Z,99.90
2022-08-14T18:29:15.035Z,99.90
2022-08-14T18:31:45.544Z,99.90
2022-08-14T18:34:31.833Z,99.90
2022-08-14T18:37:16.765Z,99.90
2022-08-14T18:40:00.994Z,99.90
2022-08-14T18:42:45.893Z,99.90
2022-08-14T18:45:18.639Z,99.90
2022-08-14T18:48:14.354Z,99.90
2022-08-14T18:50:52.681Z,99.90
2022-08-14T18:53:25.059Z,99.90
2022-08-14T18:56:02.034Z,99.90
2022-08-14T18:58:49.037Z,99.90
2022-08-14T19:01:29.862Z,99.90
2022-08-14T19:03:59.946Z,99.90
2022-08-14T19:06:44.746Z,99.90
2022-08-14T19:09:50.983Z,99.90
2022-08-14T19:13:03.379Z,99.90
2022-08-14T19:15:35.606Z,99.90
2022-08-14T19:18:28.190Z,99.90
2022-08-14T19:20:59.750Z,99.90
2022-08-14T19:23:42.942Z,99.90
2022-08-14T19:26:35.875Z,99.90
2022-08-14T19:29:37.875Z,99.90
2022-08-14T19:32:39.720Z,99.90
2022-08-14T19:35:55.243Z,99.90
2022-08-14T19:38:52.196Z,99.90
2022-08-14T19:41:25.135Z,99.90
2022-08-14T19:44:10.352Z,99.90
2022-08-14T19:47:02.653Z,99.90
2022-08-14T19:50:07.725Z,99.90
2022-08-14T19:52:24.886Z,99.90
2022-08-14T19:54:53.782Z,99.90
2022-08-14T19:57:24.886Z,99.90
2022-08-14T20:00:04.704Z,99.90
2022-08-14T20:02:37.517Z,99.90
2022-08-14T20:05:11.335Z,99.90
2022-08-14T20:08:00.577Z,99.90
2022-08-14T20:11:03.513Z,99.90
2022-08-14T20:13:29.275Z,99.90
2022-08-14T20:16:12.018Z,99.90
2022-08-14T20:18:50.088Z,99.90
2022-08-14T20:21:20.081Z,99.90
2022-08-14T20:23:49.472Z,99.90
2022-08-14T20:26:31.750Z,99.90
2022-08-14T20:29:07.207Z,99.90
2022-08-14T20:31:38.609Z,99.90
2022-08-14T20:34:18.728Z,99.90
2022-08-14T20:37:04.266Z,99.90
2022-08-14T20:39:36.120Z,99.90
2022-08-14T20:42:32.519Z,99.90
2022-08-14T20:45:21.580Z,99.90
2022-08-14T20:47:58.560Z,99.90
2022-08-14T20:50:32.016Z,99.90
2022-08-14T20:53:06.136Z,99.90
2022-08-14T20:55:41.381Z,99.90
2022-08-14T20:58:42.002Z,99.90
2022-08-14T21:01:33.762Z,99.90
2022-08-14T21:04:12.150Z,99.90
2022-08-14T21:07:22.968Z,99.90
2022-08-14T21:09:43.876Z,99.90
2022-08-14T21:12:33.845Z,99.90
2022-08-14T21:15:11.079Z,99.90
2022-08-14T21:17:47.284Z,99.90
2022-08-14T21:20:25.870Z,99.90
2022-08-14T21:23:00.310Z,99.90
2022-08-14T21:25:31.420Z,99.90
2022-08-14T21:28:04.033Z,99.90
2022-08-14T21:30:51.030Z,99.90
2022-08-14T21:33:23.964Z,99.90
2022-08-14T21:35:55.045Z,99.90
2022-08-14T21:38:33.567Z,99.90
2022-08-14T21:41:42.193Z,99.90
2022-08-14T21:44:17.219Z,99.90
2022-08-14T21:46:49.769Z,99.90
2022-08-14T21:49:22.740Z,99.90
2022-08-14T21:51:58.925Z,99.90
2022-08-14T21:54:49.158Z,99.90
2022-08-14T21:57:56.372Z,99.90
2022-08-14T22:00:36.061Z,99.90
2022-08-14T22:03:09.815Z,99.90
2022-08-14T22:05:42.406Z,99.90
2022-08-14T22:08:13.908Z,99.90
2022-08-14T22:10:46.784Z,99.90
2022-08-14T22:13:17.273Z,99.90
2022-08-14T22:15:50.066Z,99.90
2022-08-14T22:18:21.194Z,99.90
2022-08-14T22:20:56.650Z,99.90
2022-08-14T22:23:27.133Z,99.90
2022-08-14T22:25:56.600Z,99.90
2022-08-14T22:28:32.995Z,99.90
2022-08-14T22:31:10.630Z,99.90
2022-08-14T22:33:43.015Z,99.90
2022-08-14T22:36:42.243Z,99.90
2022-08-14T22:39:14.009Z,99.90
2022-08-14T22:41:43.710Z,99.90
2022-08-14T22:44:29.964Z,99.90
2022-08-14T22:46:59.583Z,99.90
2022-08-14T22:50:30.033Z,99.90
2022-08-14T22:52:33.069Z,99.90
2022-08-14T22:55:06.014Z,99.90
2022-08-14T22:57:37.178Z,99.90
2022-08-14T23:00:14.760Z,99.90
2022-08-14T23:02:46.776Z,99.90
2022-08-14T23:05:15.825Z,99.90
2022-08-14T23:08:58.943Z,99.90
2022-08-14T23:10:35.251Z,99.90
2022-08-14T23:13:06.732Z,99.90
2022-08-14T23:15:37.461Z,99.90
2022-08-14T23:18:07.478Z,99.90
2022-08-14T23:20:42.506Z,99.90
2022-08-14T23:23:22.336Z,99.90
2022-08-14T23:25:59.999Z,99.90
2022-08-14T23:28:33.719Z,99.90
2022-08-14T23:31:33.525Z,99.90
2022-08-14T23:34:07.378Z,99.90
2022-08-14T23:36:52.734Z,99.90
2022-08-14T23:39:30.531Z,99.90
2022-08-14T23:42:03.800Z,99.90
2022-08-14T23:44:36.993Z,99.90
2022-08-14T23:47:12.064Z,99.90
2022-08-14T23:50:00.788Z,99.90
2022-08-14T23:53:06.218Z,99.90
2022-08-14T23:55:29.444Z,99.90
2022-08-14T23:57:59.318Z,99.90
